Time;durP1;ratioP1;P1;durP2;ratioP2;P2;SDS_P1;SDS_P2;PMS_P1;PMS_P2;Temp;Humidity;BMP_temperature;BMP_pressure;BME280_temperature;BME280_humidity;BME280_pressure;Samples;Min_cycle;Max_cycle;Signal;HPM_P1;HPM_P2
2022/06/03 00:01:02;;;;;;;7.20;5.22;;;;;;;20.03;nan;100809.13;5088881;28;20032;-70
2022/06/03 00:03:55;;;;;;;9.40;5.37;;;;;;;19.88;nan;100796.66;5107166;28;20047;-70
2022/06/03 00:06:23;;;;;;;9.02;5.15;;;;;;;19.96;nan;100822.00;5109421;28;20059;-69
2022/06/03 00:08:54;;;;;;;5.78;4.90;;;;;;;19.91;nan;100828.19;5113465;28;20028;-70
2022/06/03 00:11:28;;;;;;;10.77;5.00;;;;;;;19.88;nan;100830.63;5113267;28;20035;-69
2022/06/03 00:14:25;;;;;;;5.57;4.95;;;;;;;19.82;nan;100831.72;5111658;28;20040;-70
2022/06/03 00:17:19;;;;;;;6.43;4.55;;;;;;;19.66;nan;100831.78;5109810;28;20531;-69
2022/06/03 00:20:10;;;;;;;7.80;5.28;;;;;;;19.53;nan;100824.34;5068936;28;20119;-70
2022/06/03 00:22:41;;;;;;;9.80;5.05;;;;;;;19.50;nan;100831.03;5108516;28;20071;-69
2022/06/03 00:25:26;;;;;;;6.47;5.30;;;;;;;19.56;nan;100839.81;5108582;28;20032;-69
2022/06/03 00:28:10;;;;;;;7.28;5.20;;;;;;;19.54;nan;100842.78;5109772;28;20122;-70
2022/06/03 00:30:41;;;;;;;6.82;5.45;;;;;;;19.55;nan;100835.56;5109729;28;20036;-70
2022/06/03 00:33:06;;;;;;;6.70;5.15;;;;;;;19.57;nan;100836.09;5111448;28;20077;-71
2022/06/03 00:35:55;;;;;;;9.43;5.72;;;;;;;19.55;nan;100832.88;5107128;28;20497;-70
2022/06/03 00:38:21;;;;;;;;;;;;;;;19.50;nan;100832.91;5108642;28;20158;-69
2022/06/03 00:41:05;;;;;;;10.93;5.47;;;;;;;19.44;nan;100831.31;5090828;28;20014;-69
2022/06/03 00:43:55;;;;;;;6.57;5.50;;;;;;;19.30;nan;100823.91;5112866;28;20031;-68
2022/06/03 00:46:44;;;;;;;8.60;5.57;;;;;;;19.24;nan;100822.31;5111231;28;20047;-69
2022/06/03 00:49:23;;;;;;;11.32;5.40;;;;;;;19.19;nan;100822.34;5080654;28;20059;-69
2022/06/03 00:51:59;;;;;;;7.45;5.10;;;;;;;18.91;nan;100781.88;5110472;28;20039;-69
2022/06/03 00:54:27;;;;;;;7.05;5.55;;;;;;;19.21;nan;100822.88;5110563;28;20138;-69
2022/06/03 00:57:02;;;;;;;7.60;6.05;;;;;;;19.22;nan;100829.00;5086947;28;20059;-69
2022/06/03 01:00:04;;;;;;;9.50;5.72;;;;;;;19.19;nan;100825.00;5097782;28;20048;-69
2022/06/03 01:03:14;;;;;;;10.52;6.45;;;;;;;19.21;nan;100825.53;5109551;28;20039;-70
2022/06/03 01:05:42;;;;;;;6.63;5.60;;;;;;;19.23;nan;100830.63;5088047;28;20054;-70
2022/06/03 01:08:21;;;;;;;6.18;5.57;;;;;;;19.21;nan;100832.75;5094783;28;20032;-70
2022/06/03 01:10:56;;;;;;;8.07;5.67;;;;;;;19.19;nan;100829.56;5091464;28;20039;-69
2022/06/03 01:13:58;;;;;;;8.45;6.20;;;;;;;19.13;nan;100837.59;5110363;28;20096;-69
2022/06/03 01:16:44;;;;;;;13.27;6.43;;;;;;;19.07;nan;100836.00;5052004;28;20040;-70
2022/06/03 01:19:30;;;;;;;11.75;6.70;;;;;;;19.03;nan;100836.78;5059880;28;20097;-70
2022/06/03 01:22:53;;;;;;;8.98;6.50;;;;;;;18.84;nan;100821.38;5047641;28;20120;-69
2022/06/03 01:25:25;;;;;;;12.40;6.72;;;;;;;18.86;nan;100827.22;5024071;28;20135;-70
2022/06/03 01:28:08;;;;;;;10.45;7.25;;;;;;;18.78;nan;100824.31;5033488;28;20045;-69
2022/06/03 01:31:02;;;;;;;10.40;7.80;;;;;;;18.72;nan;100826.13;5043145;28;20083;-71
2022/06/03 01:33:58;;;;;;;14.45;8.55;;;;;;;18.67;nan;100821.59;5052726;28;20109;-69
2022/06/03 01:36:44;;;;;;;14.23;9.02;;;;;;;18.62;nan;100831.50;5062259;28;20118;-69
2022/06/03 01:39:25;;;;;;;13.20;8.98;;;;;;;18.56;nan;100821.91;5042446;28;20041;-69
2022/06/03 01:42:15;;;;;;;17.50;10.18;;;;;;;18.43;nan;100832.03;5047301;28;20487;-69
2022/06/03 01:45:11;;;;;;;18.00;9.70;;;;;;;18.37;nan;100830.44;5049212;28;20040;-68
2022/06/03 01:47:43;;;;;;;15.20;10.13;;;;;;;18.30;nan;100835.22;5040379;28;20064;-68
2022/06/03 01:50:29;;;;;;;16.38;10.77;;;;;;;18.20;nan;100827.22;5043449;28;20848;-67
2022/06/03 01:53:18;;;;;;;16.55;10.32;;;;;;;18.19;nan;100826.41;5079829;28;20382;-69
2022/06/03 01:55:56;;;;;;;16.23;11.32;;;;;;;18.22;nan;100833.06;5110593;28;20044;-68
2022/06/03 01:58:40;;;;;;;14.48;11.02;;;;;;;18.21;nan;100837.63;5110254;28;20058;-68
2022/06/03 02:01:20;;;;;;;17.77;11.27;;;;;;;18.23;nan;100842.69;5105967;28;20042;-69
2022/06/03 02:04:05;;;;;;;19.92;11.98;;;;;;;18.18;nan;100840.81;5105154;28;20151;-70
2022/06/03 02:07:01;;;;;;;16.30;11.65;;;;;;;18.26;nan;100853.59;5106690;28;20032;-70
2022/06/03 02:10:18;;;;;;;20.15;11.63;;;;;;;18.27;nan;100852.56;5107367;28;20040;-69
2022/06/03 02:12:57;;;;;;;20.48;12.18;;;;;;;18.25;nan;100838.69;5028093;28;20065;-69
2022/06/03 02:15:52;;;;;;;;;;;;;;;18.21;nan;100834.94;5029151;28;21069;-69
2022/06/03 02:18:46;;;;;;;20.48;12.93;;;;;;;18.18;nan;100838.16;5028023;28;19924;-68
2022/06/03 02:21:15;;;;;;;20.67;12.85;;;;;;;18.13;nan;100843.47;5022868;28;20204;-69
2022/06/03 02:24:14;;;;;;;16.20;12.85;;;;;;;18.02;nan;100844.50;5023073;28;20037;-69
2022/06/03 02:27:18;;;;;;;25.35;13.23;;;;;;;17.92;nan;100850.63;5027252;28;20065;-70
2022/06/03 02:32:44;;;;;;;23.17;13.73;;;;;;;17.85;nan;100850.88;5025904;28;20033;-67
2022/06/03 02:35:23;;;;;;;19.58;12.77;;;;;;;17.86;nan;100841.00;5028043;28;20445;-69
2022/06/03 02:38:39;;;;;;;20.15;13.32;;;;;;;17.85;nan;100844.75;5028132;28;20060;-69
2022/06/03 02:41:26;;;;;;;18.92;12.75;;;;;;;17.85;nan;100855.41;4934093;29;20101;-68
2022/06/03 02:44:17;;;;;;;19.90;13.05;;;;;;;17.78;nan;100862.81;4926189;29;20040;-69
2022/06/03 02:46:52;;;;;;;20.02;12.70;;;;;;;17.76;nan;100859.59;4927176;29;20486;-69
2022/06/03 02:49:32;;;;;;;20.77;12.70;;;;;;;17.76;nan;100851.59;4988901;28;20048;-69
2022/06/03 02:52:22;;;;;;;21.90;13.05;;;;;;;17.77;nan;100858.56;4999153;28;20033;-69
2022/06/03 02:54:50;;;;;;;20.55;13.13;;;;;;;17.70;nan;100840.16;4992251;28;20042;-69
2022/06/03 02:57:50;;;;;;;20.13;12.95;;;;;;;17.81;nan;100857.81;5003330;28;20070;-69
2022/06/03 03:00:19;;;;;;;22.92;12.55;;;;;;;17.82;nan;100853.25;4997689;28;20413;-69
2022/06/03 03:02:50;;;;;;;21.88;12.70;;;;;;;17.82;nan;100859.38;4990079;28;20094;-68
2022/06/03 03:05:15;;;;;;;19.33;12.98;;;;;;;17.83;nan;100874.28;4994823;28;20030;-68
2022/06/03 03:08:05;;;;;;;17.95;12.00;;;;;;;17.84;nan;100883.91;5003334;28;20741;-68
2022/06/03 03:10:57;;;;;;;16.90;12.32;;;;;;;17.81;nan;100879.13;4994619;28;20137;-68
2022/06/03 03:13:57;;;;;;;20.30;13.20;;;;;;;17.81;nan;100886.28;5106497;28;20059;-68
2022/06/03 03:16:48;;;;;;;22.35;12.48;;;;;;;17.79;nan;100883.88;5108016;28;20035;-68
2022/06/03 03:20:02;;;;;;;22.95;13.75;;;;;;;17.76;nan;100887.03;5098627;28;20116;-69
2022/06/03 03:22:30;;;;;;;25.63;13.52;;;;;;;17.71;nan;100895.00;5026523;28;20076;-69
2022/06/03 03:24:59;;;;;;;27.55;13.52;;;;;;;17.67;nan;100896.59;5002054;28;20088;-69
2022/06/03 03:27:52;;;;;;;18.05;13.30;;;;;;;17.69;nan;100896.31;5025965;28;20542;-70
2022/06/03 03:30:24;;;;;;;22.65;13.73;;;;;;;17.69;nan;100901.66;5021321;28;20065;-67
2022/06/03 03:33:19;;;;;;;20.13;14.00;;;;;;;17.72;nan;100909.13;5027192;28;20053;-69
2022/06/03 03:36:04;;;;;;;26.48;14.23;;;;;;;17.71;nan;100910.19;5025893;28;20095;-70
2022/06/03 03:38:48;;;;;;;22.45;14.38;;;;;;;17.74;nan;100909.66;5027931;28;20064;-69
2022/06/03 03:41:29;;;;;;;28.88;14.55;;;;;;;17.74;nan;100910.47;5015791;28;20152;-68
2022/06/03 03:43:54;;;;;;;23.55;14.32;;;;;;;17.75;nan;100911.28;5028930;28;20503;-67
2022/06/03 03:46:57;;;;;;;26.67;15.48;;;;;;;17.75;nan;100905.94;5030711;28;20041;-69
2022/06/03 03:49:41;;;;;;;23.10;15.32;;;;;;;17.72;nan;100906.44;5029229;28;20045;-70
2022/06/03 03:52:36;;;;;;;24.27;16.23;;;;;;;17.71;nan;100903.00;5031456;28;20041;-71
2022/06/03 03:55:19;;;;;;;37.25;20.65;;;;;;;17.74;nan;100899.00;5011902;28;20087;-69
2022/06/03 03:58:18;;;;;;;22.50;15.02;;;;;;;17.66;nan;100889.66;5041466;28;20039;-69
2022/06/03 04:00:58;;;;;;;25.17;15.50;;;;;;;17.76;nan;100891.56;5111142;28;20389;-69
2022/06/03 04:03:27;;;;;;;30.63;15.38;;;;;;;17.75;nan;100892.63;5113027;28;20617;-70
2022/06/03 04:06:30;;;;;;;22.50;14.50;;;;;;;17.72;nan;100898.47;5111361;28;20030;-69
2022/06/03 04:09:01;;;;;;;25.17;17.10;;;;;;;17.73;nan;100905.41;5110972;28;20027;-69
2022/06/03 04:12:22;;;;;;;21.88;14.98;;;;;;;17.76;nan;100910.22;5086880;28;20081;-70
2022/06/03 04:14:53;;;;;;;27.33;15.10;;;;;;;17.76;nan;100903.00;5108249;28;20481;-69
2022/06/03 04:17:40;;;;;;;20.60;14.77;;;;;;;17.79;nan;100902.50;5108329;28;20043;-70
2022/06/03 04:20:11;;;;;;;25.35;15.10;;;;;;;17.81;nan;100897.75;5112639;28;20046;-70
2022/06/03 04:22:59;;;;;;;22.60;14.68;;;;;;;17.82;nan;100903.88;5112714;28;20524;-71
2022/06/03 04:26:04;;;;;;;22.70;15.30;;;;;;;17.87;nan;100909.22;5093039;28;20074;-70
2022/06/03 04:28:49;;;;;;;24.65;15.23;;;;;;;17.93;nan;100907.38;5094101;28;20035;-70
2022/06/03 04:31:49;;;;;;;24.15;14.65;;;;;;;17.97;nan;100895.94;5109866;28;20389;-69
2022/06/03 04:34:32;;;;;;;;;;;;;;;18.01;nan;100902.34;5107974;28;20126;-69
2022/06/03 04:37:16;;;;;;;24.30;14.98;;;;;;;18.05;nan;100914.09;5107817;28;19988;-69
2022/06/03 04:39:59;;;;;;;32.60;16.25;;;;;;;18.10;nan;100902.66;5105719;28;20078;-69
2022/06/03 04:42:45;;;;;;;27.67;16.02;;;;;;;18.14;nan;100910.91;5109161;28;20032;-67
2022/06/03 04:45:26;;;;;;;21.88;16.10;;;;;;;18.19;nan;100913.56;5111525;28;20038;-68
2022/06/03 04:48:05;;;;;;;25.63;15.60;;;;;;;18.18;nan;100898.66;5111481;28;20035;-69
2022/06/03 04:51:00;;;;;;;;;;;;;;;18.27;nan;100902.41;5105355;28;20035;-69
2022/06/03 04:53:59;;;;;;;28.52;15.40;;;;;;;18.32;nan;100905.09;5068677;28;19915;-69
2022/06/03 04:56:55;;;;;;;25.38;16.48;;;;;;;18.37;nan;100904.31;5067830;28;20529;-70
2022/06/03 04:59:38;;;;;;;22.98;16.92;;;;;;;18.44;nan;100905.63;5050237;28;20047;-71
2022/06/03 05:02:24;;;;;;;25.88;16.15;;;;;;;18.53;nan;100919.22;5066129;28;20124;-71
2022/06/03 05:05:17;;;;;;;27.02;16.38;;;;;;;18.60;nan;100916.31;5069060;28;20043;-67
2022/06/03 05:08:07;;;;;;;26.40;16.98;;;;;;;18.67;nan;100924.84;5058558;28;20044;-68
2022/06/03 05:11:17;;;;;;;27.98;15.75;;;;;;;18.72;nan;100927.53;5058838;28;20509;-69
2022/06/03 05:13:57;;;;;;;31.90;16.20;;;;;;;18.78;nan;100925.69;5061600;28;20671;-69
2022/06/03 05:16:44;;;;;;;25.38;15.57;;;;;;;18.84;nan;100914.78;5065961;28;20037;-70
2022/06/03 05:19:30;;;;;;;31.33;15.93;;;;;;;18.90;nan;100918.22;5062782;28;20037;-69
2022/06/03 05:22:32;;;;;;;26.98;15.90;;;;;;;18.91;nan;100912.63;5066821;28;20119;-68
2022/06/03 05:25:06;;;;;;;30.63;15.90;;;;;;;19.02;nan;100920.63;5060993;28;20051;-69
2022/06/03 05:28:13;;;;;;;31.60;16.20;;;;;;;19.09;nan;100929.16;5062172;28;20078;-67
2022/06/03 05:31:09;;;;;;;26.00;15.00;;;;;;;19.17;nan;100922.47;5024614;28;20037;-69
2022/06/03 05:33:56;;;;;;;26.10;14.68;;;;;;;19.23;nan;100916.06;5007015;28;20144;-66
2022/06/03 05:36:24;;;;;;;23.08;15.43;;;;;;;19.30;nan;100917.38;5025522;28;20037;-68
2022/06/03 05:39:14;;;;;;;30.10;15.95;;;;;;;19.37;nan;100922.44;5027382;28;20443;-68
2022/06/03 05:45:52;;;;;;;29.13;15.70;;;;;;;19.54;nan;100927.47;4967983;28;20035;-66
2022/06/03 05:48:20;;;;;;;29.23;16.50;;;;;;;19.63;nan;100925.81;4969397;28;20042;-68
2022/06/03 05:51:14;;;;;;;28.58;15.68;;;;;;;19.71;nan;100924.50;4970455;28;20614;-67
2022/06/03 05:53:44;;;;;;;25.88;15.82;;;;;;;19.79;nan;100923.13;4975751;28;20069;-68
2022/06/03 05:56:21;;;;;;;24.50;16.23;;;;;;;19.88;nan;100929.50;4968693;28;20521;-69
2022/06/03 05:58:56;;;;;;;23.25;15.43;;;;;;;19.98;nan;100938.28;4970292;28;20497;-68
2022/06/03 06:01:57;;;;;;;32.10;16.27;;;;;;;20.15;nan;100948.63;4969606;28;20038;-69
2022/06/03 06:04:56;;;;;;;26.63;14.70;;;;;;;20.22;nan;100876.13;4969995;28;20389;-68
2022/06/03 06:07:39;;;;;;;31.35;14.45;;;;;;;20.49;nan;100893.59;4994464;28;20033;-69
2022/06/03 06:10:34;;;;;;;25.38;15.13;;;;;;;20.70;nan;100904.97;5028881;28;20062;-67
2022/06/03 06:13:05;;;;;;;25.42;15.65;;;;;;;20.81;nan;100898.44;4969559;28;20035;-67
2022/06/03 06:15:44;;;;;;;22.30;15.38;;;;;;;20.88;nan;100890.06;4970006;28;20078;-69
2022/06/03 06:18:22;;;;;;;24.35;15.02;;;;;;;21.38;nan;101001.31;4970005;28;20098;-67
2022/06/03 06:20:59;;;;;;;27.10;15.23;;;;;;;21.04;nan;100940.53;5002896;28;20052;-68
2022/06/03 06:24:06;;;;;;;26.15;16.02;;;;;;;21.13;nan;100945.28;5048757;28;20128;-68
2022/06/03 06:26:31;;;;;;;20.48;14.32;;;;;;;21.21;nan;100947.34;4992222;28;20138;-68
2022/06/03 06:29:18;;;;;;;22.27;14.43;;;;;;;21.31;nan;100957.97;5008344;28;20030;-70
2022/06/03 06:32:28;;;;;;;21.13;13.23;;;;;;;21.36;nan;100965.97;5005922;28;20065;-67
2022/06/03 06:35:22;;;;;;;19.75;13.80;;;;;;;21.48;nan;100964.78;4989949;28;20073;-69
2022/06/03 06:38:06;;;;;;;20.05;13.90;;;;;;;21.53;nan;100970.09;5006188;28;20530;-68
2022/06/03 06:40:50;;;;;;;21.75;13.70;;;;;;;21.58;nan;100975.41;5007016;28;20048;-69
2022/06/03 06:43:43;;;;;;;21.08;13.82;;;;;;;21.62;nan;100960.34;5005661;28;20038;-69
2022/06/03 06:46:45;;;;;;;21.40;13.23;;;;;;;21.49;nan;100934.25;5004421;28;20111;-69
2022/06/03 06:49:35;;;;;;;25.63;13.35;;;;;;;21.86;nan;100981.78;5011496;28;20053;-69
2022/06/03 06:52:06;;;;;;;20.55;12.80;;;;;;;21.94;nan;100972.31;5047323;28;20037;-69
2022/06/03 06:54:32;;;;;;;24.45;12.85;;;;;;;22.00;nan;100979.19;5030435;28;20477;-69
2022/06/03 06:57:04;;;;;;;22.23;13.48;;;;;;;21.95;nan;100966.66;5047908;28;20037;-69
2022/06/03 06:59:40;;;;;;;22.17;12.90;;;;;;;22.00;nan;100974.63;5030212;28;20040;-69
2022/06/03 07:02:40;;;;;;;24.90;14.25;;;;;;;22.12;nan;100993.00;5048026;28;20087;-69
2022/06/03 07:05:33;;;;;;;23.27;13.15;;;;;;;22.15;nan;100984.38;5063981;28;20020;-68
2022/06/03 07:08:06;;;;;;;20.80;13.50;;;;;;;22.25;nan;100996.91;5076521;28;20032;-70
2022/06/03 07:10:44;;;;;;;18.95;13.23;;;;;;;22.27;nan;100986.69;5069041;28;20052;-68
2022/06/03 07:13:48;;;;;;;18.55;13.48;;;;;;;22.35;nan;100985.22;5062815;28;20028;-69
2022/06/03 07:19:47;;;;;;;17.45;12.55;;;;;;;22.39;nan;100983.56;5018085;28;20486;-68
2022/06/03 07:22:24;;;;;;;17.42;11.35;;;;;;;22.49;nan;100986.09;5018512;28;20038;-69
2022/06/03 07:25:04;;;;;;;16.60;11.55;;;;;;;22.54;nan;100991.41;5011652;28;20041;-68
2022/06/03 07:27:44;;;;;;;21.48;11.45;;;;;;;22.47;nan;100967.59;5011377;28;20046;-68
2022/06/03 07:30:15;;;;;;;14.95;11.20;;;;;;;22.64;nan;100996.59;5013954;28;20038;-68
2022/06/03 07:33:06;;;;;;;16.63;10.68;;;;;;;22.69;nan;100996.53;5014681;28;20045;-68
2022/06/03 07:35:54;;;;;;;16.42;11.15;;;;;;;22.75;nan;100997.25;5011471;28;20045;-69
2022/06/03 07:38:34;;;;;;;15.83;11.23;;;;;;;22.80;nan;100997.19;5022722;28;20053;-69
2022/06/03 07:41:16;;;;;;;13.75;10.55;;;;;;;22.86;nan;100998.69;5034759;28;20140;-70
2022/06/03 07:44:16;;;;;;;21.17;11.25;;;;;;;22.93;nan;100998.31;5036598;28;20041;-67
2022/06/03 07:47:00;;;;;;;25.00;11.45;;;;;;;22.94;nan;100981.91;5035648;28;20052;-69
2022/06/03 07:49:28;;;;;;;15.18;11.30;;;;;;;22.93;nan;100974.16;5034639;28;20065;-68
2022/06/03 07:52:04;;;;;;;19.75;12.05;;;;;;;23.09;nan;100983.56;5034602;28;20029;-67
2022/06/03 07:54:34;;;;;;;17.20;10.68;;;;;;;23.13;nan;100978.44;5034973;28;20139;-68
2022/06/03 07:57:19;;;;;;;15.32;10.63;;;;;;;23.32;nan;100983.72;5088168;28;20069;-69
2022/06/03 07:59:44;;;;;;;15.80;9.77;;;;;;;23.47;nan;100996.88;5093838;28;20043;-68
2022/06/03 08:02:16;;;;;;;18.90;8.98;;;;;;;23.52;nan;100994.09;5095015;28;20028;-67
2022/06/03 08:04:43;;;;;;;16.42;9.93;;;;;;;23.70;nan;100997.78;5091851;28;20033;-70
2022/06/03 08:13:02;;;;;;;15.10;9.98;;;;;;;23.97;nan;100972.81;5094414;28;20032;-70
2022/06/03 08:15:35;;;;;;;27.67;11.18;;;;;;;24.15;nan;100986.44;5094045;28;20038;-69
2022/06/03 08:18:05;;;;;;;17.13;10.77;;;;;;;24.19;nan;100982.84;5092030;28;20036;-69
2022/06/03 08:20:34;;;;;;;17.35;10.63;;;;;;;24.27;nan;100978.63;5083216;28;20040;-71
2022/06/03 08:23:09;;;;;;;18.85;10.77;;;;;;;24.42;nan;100989.06;5092055;28;20030;-68
2022/06/03 08:25:43;;;;;;;14.63;9.30;;;;;;;24.52;nan;100996.16;5091956;28;20946;-69
2022/06/03 08:28:21;;;;;;;17.92;10.27;;;;;;;24.61;nan;101005.09;5092517;28;20055;-67
2022/06/03 08:30:52;;;;;;;13.93;10.32;;;;;;;24.76;nan;101000.47;5092760;28;20036;-69
2022/06/03 08:33:33;;;;;;;19.83;10.88;;;;;;;24.83;nan;100996.22;5090327;28;20115;-66
2022/06/03 08:35:59;;;;;;;15.60;8.38;;;;;;;24.87;nan;100995.59;5091432;28;20036;-69
2022/06/03 08:38:41;;;;;;;10.55;7.32;;;;;;;24.97;nan;100998.03;5099164;28;20524;-67
2022/06/03 08:41:07;;;;;;;11.68;7.53;;;;;;;25.07;nan;101002.38;5110844;28;20115;-67
2022/06/03 08:44:02;;;;;;;11.02;8.30;;;;;;;25.15;nan;101002.44;5109991;28;20111;-70
2022/06/03 08:46:37;;;;;;;10.70;7.65;;;;;;;25.18;nan;100999.16;5108509;28;20035;-67
2022/06/03 08:49:17;;;;;;;12.93;7.60;;;;;;;25.23;nan;101001.72;5113156;28;20028;-67
2022/06/03 08:51:49;;;;;;;10.30;8.10;;;;;;;25.29;nan;101004.31;5111146;28;20032;-68
2022/06/03 08:54:18;;;;;;;10.98;8.35;;;;;;;25.32;nan;101001.78;5113286;28;20043;-67
2022/06/03 08:56:46;;;;;;;;;;;;;;;25.34;nan;100996.88;5092900;28;20028;-69
2022/06/03 08:59:24;;;;;;;11.55;8.10;;;;;;;25.36;nan;100991.97;5110297;28;19911;-70
2022/06/03 09:01:58;;;;;;;10.27;7.60;;;;;;;25.43;nan;100999.63;5111144;28;20038;-70
2022/06/03 09:04:47;;;;;;;14.32;8.98;;;;;;;25.49;nan;101003.75;5109518;28;20028;-70
2022/06/03 09:07:25;;;;;;;;;;;;;;;25.56;nan;100997.91;5112071;28;20034;-67
2022/06/03 09:10:06;;;;;;;12.07;8.25;;;;;;;25.64;nan;100997.97;5109740;28;19923;-67
2022/06/03 09:12:32;;;;;;;9.13;7.35;;;;;;;25.81;nan;100996.41;5094414;28;20081;-67
2022/06/03 09:15:08;;;;;;;16.00;7.65;;;;;;;25.86;nan;100999.81;5109283;28;20136;-68
2022/06/03 09:17:51;;;;;;;11.25;7.65;;;;;;;25.95;nan;100997.09;5112602;28;20503;-69
2022/06/03 09:20:33;;;;;;;10.73;6.63;;;;;;;26.07;nan;100994.63;5111380;28;20027;-68
2022/06/03 09:23:06;;;;;;;11.55;6.38;;;;;;;26.15;nan;100989.53;5106494;28;20020;-67
2022/06/03 09:25:40;;;;;;;11.15;6.97;;;;;;;26.29;nan;100995.56;5109751;28;20032;-66
2022/06/03 09:28:12;;;;;;;9.43;5.68;;;;;;;26.27;nan;100987.00;5112655;28;20032;-70
2022/06/03 09:30:49;;;;;;;6.35;4.60;;;;;;;26.38;nan;100990.19;5112861;28;20046;-68
2022/06/03 09:33:21;;;;;;;6.80;4.63;;;;;;;26.52;nan;100998.91;5112426;28;20031;-67
2022/06/03 09:35:56;;;;;;;8.50;5.35;;;;;;;26.59;nan;100990.38;5110043;28;20035;-67
2022/06/03 09:38:29;;;;;;;7.43;5.53;;;;;;;26.71;nan;100995.94;5093820;28;20138;-67
2022/06/03 09:40:59;;;;;;;10.18;5.85;;;;;;;26.58;nan;100953.66;5112451;28;20023;-69
2022/06/03 09:43:41;;;;;;;9.55;6.35;;;;;;;26.82;nan;100982.91;5111560;28;20031;-66
2022/06/03 09:46:11;;;;;;;10.13;4.93;;;;;;;26.90;nan;100984.78;5110832;28;20031;-71
2022/06/03 09:48:39;;;;;;;13.63;5.15;;;;;;;26.93;nan;100982.22;5111955;28;20032;-69
2022/06/03 09:51:55;;;;;;;6.35;4.63;;;;;;;26.93;nan;100973.31;5094025;28;20031;-66
2022/06/03 09:54:11;;;;;;;10.18;5.30;;;;;;;27.04;nan;100988.09;5109788;28;20070;-67
2022/06/03 09:56:37;;;;;;;6.95;5.13;;;;;;;27.13;nan;100994.28;5092412;28;20070;-69
2022/06/03 09:59:03;;;;;;;13.05;5.15;;;;;;;27.18;nan;100987.91;5112599;28;20063;-70
2022/06/03 10:01:30;;;;;;;10.88;5.18;;;;;;;27.35;nan;101001.38;5086607;28;20083;-69
2022/06/03 10:03:59;;;;;;;9.60;6.00;;;;;;;27.43;nan;101005.16;5112274;28;20050;-68
2022/06/03 10:06:47;;;;;;;7.97;4.93;;;;;;;27.49;nan;100995.75;5110941;28;20023;-70
2022/06/03 10:17:47;;;;;;;;;;;;;;;27.63;nan;100990.13;5112352;28;20031;-68
2022/06/03 10:20:13;;;;;;;6.88;4.65;;;;;;;27.68;nan;100981.84;5111521;28;19911;-70
2022/06/03 10:22:40;;;;;;;7.53;4.82;;;;;;;27.64;nan;100967.38;5111567;28;20485;-70
2022/06/03 10:25:08;;;;;;;8.65;4.75;;;;;;;27.73;nan;100976.22;5091920;28;20027;-70
2022/06/03 10:27:34;;;;;;;6.28;4.32;;;;;;;27.72;nan;100973.84;5111150;28;20031;-69
2022/06/03 10:29:59;;;;;;;5.45;4.18;;;;;;;27.72;nan;100952.97;5111995;28;20469;-70
2022/06/03 10:32:26;;;;;;;6.00;4.15;;;;;;;27.73;nan;100945.69;5111016;28;20026;-69
2022/06/03 10:35:03;;;;;;;6.90;4.38;;;;;;;27.79;nan;100957.88;5111678;28;20043;-70
2022/06/03 10:37:29;;;;;;;6.68;4.72;;;;;;;27.78;nan;100954.38;5106463;28;20110;-67
2022/06/03 10:39:56;;;;;;;5.00;4.55;;;;;;;27.85;nan;100953.91;5109736;28;20459;-67
2022/06/03 10:42:23;;;;;;;6.13;4.50;;;;;;;27.81;nan;100938.63;5106703;28;20036;-69
2022/06/03 10:44:54;;;;;;;4.90;3.85;;;;;;;27.95;nan;100958.94;5109403;28;20366;-68
2022/06/03 10:47:33;;;;;;;7.55;4.40;;;;;;;28.04;nan;100956.16;5110129;28;20101;-69
2022/06/03 10:50:01;;;;;;;;;;;;;;;28.07;nan;100954.72;5081451;28;20084;-67
2022/06/03 11:01:24;;;;;;;4.75;3.80;;;;;;;28.15;nan;100941.09;5106782;28;20035;-67
2022/06/03 11:03:49;;;;;;;4.90;3.63;;;;;;;28.13;nan;100948.75;5086044;28;20030;-67
2022/06/03 11:06:17;;;;;;;5.45;3.85;;;;;;;28.26;nan;100954.25;5106452;28;20080;-67
2022/06/03 11:08:53;;;;;;;5.97;3.40;;;;;;;28.30;nan;100947.84;5105200;28;20063;-67
2022/06/03 11:11:47;;;;;;;5.00;3.58;;;;;;;28.33;nan;100943.69;5084732;28;20035;-69
2022/06/03 11:14:24;;;;;;;4.75;4.10;;;;;;;28.37;nan;100939.16;5103776;28;20020;-68
2022/06/03 11:17:15;;;;;;;8.75;3.33;;;;;;;28.40;nan;100936.59;5101471;28;20564;-70
2022/06/03 11:19:47;;;;;;;7.90;3.10;;;;;;;28.47;nan;100930.69;5100598;28;20568;-68
2022/06/03 11:22:36;;;;;;;6.78;3.10;;;;;;;28.43;nan;100919.66;5099525;28;20031;-67
2022/06/03 11:25:10;;;;;;;4.32;3.03;;;;;;;28.58;nan;100923.69;5099819;28;20432;-67
2022/06/03 11:27:43;;;;;;;7.93;3.10;;;;;;;28.40;nan;100903.31;5106944;28;20036;-67
2022/06/03 11:30:17;;;;;;;6.65;3.33;;;;;;;28.69;nan;100920.59;5079511;28;20043;-66
2022/06/03 11:32:48;;;;;;;4.28;3.28;;;;;;;28.70;nan;100908.59;5104066;28;20150;-65
2022/06/03 11:35:22;;;;;;;4.35;3.35;;;;;;;28.84;nan;100909.88;5096942;28;20420;-66
2022/06/03 11:37:52;;;;;;;8.73;3.47;;;;;;;28.94;nan;100914.06;5092366;28;20053;-67
2022/06/03 11:40:26;;;;;;;5.53;3.00;;;;;;;28.95;nan;100904.81;5100570;28;20036;-66
2022/06/03 11:43:00;;;;;;;6.85;3.35;;;;;;;28.99;nan;100908.41;5104839;28;20567;-63
2022/06/03 11:45:57;;;;;;;8.68;3.72;;;;;;;28.99;nan;100903.00;5101198;28;20077;-67
2022/06/03 11:48:34;;;;;;;6.63;3.20;;;;;;;29.00;nan;100891.03;5099482;28;20084;-65
2022/06/03 11:51:00;;;;;;;3.70;2.95;;;;;;;29.03;nan;100890.34;5096665;28;20390;-66
2022/06/03 11:53:30;;;;;;;4.78;3.30;;;;;;;29.15;nan;100899.66;5097171;28;20031;-67
2022/06/03 11:56:02;;;;;;;8.90;3.50;;;;;;;29.17;nan;100891.97;5102598;28;20035;-66
2022/06/03 11:58:45;;;;;;;5.97;3.28;;;;;;;29.27;nan;100891.53;5084303;28;20051;-66
2022/06/03 12:01:49;;;;;;;4.22;3.70;;;;;;;29.36;nan;100894.91;5107679;28;20039;-66
2022/06/03 12:04:26;;;;;;;5.82;3.80;;;;;;;29.36;nan;100897.63;5101402;28;20036;-67
2022/06/03 12:07:10;;;;;;;4.95;3.10;;;;;;;29.42;nan;100901.66;5104099;28;20070;-64
2022/06/03 12:09:45;;;;;;;4.93;3.08;;;;;;;29.47;nan;100901.47;5104939;28;20077;-66
2022/06/03 12:15:28;;;;;;;6.38;3.50;;;;;;;29.62;nan;100893.75;5105584;28;20069;-64
2022/06/03 12:17:54;;;;;;;4.82;3.28;;;;;;;29.76;nan;100893.41;5110453;28;20028;-63
2022/06/03 12:20:47;;;;;;;5.47;3.40;;;;;;;29.82;nan;100892.03;5085143;28;20046;-64
2022/06/03 12:23:12;;;;;;;6.05;3.53;;;;;;;29.91;nan;100892.69;5086948;28;20430;-67
2022/06/03 12:25:45;;;;;;;5.57;3.38;;;;;;;30.01;nan;100881.34;5105891;28;20028;-67
2022/06/03 12:28:23;;;;;;;5.00;3.25;;;;;;;30.10;nan;100883.91;5106290;28;20039;-64
2022/06/03 12:30:51;;;;;;;8.87;3.87;;;;;;;30.10;nan;100878.47;5108502;28;20392;-63
2022/06/03 12:33:54;;;;;;;5.65;3.45;;;;;;;30.14;nan;100884.78;5109483;28;20276;-67
2022/06/03 12:36:50;;;;;;;4.53;3.33;;;;;;;30.13;nan;100890.59;5101101;28;20036;-66
2022/06/03 12:39:27;;;;;;;5.50;3.53;;;;;;;30.11;nan;100891.69;5100040;28;20043;-66
2022/06/03 12:42:00;;;;;;;5.50;3.25;;;;;;;30.15;nan;100882.88;5097313;28;20066;-66
2022/06/03 12:44:38;;;;;;;5.55;3.70;;;;;;;30.25;nan;100882.38;5103275;28;20076;-67
2022/06/03 12:47:36;;;;;;;;;;;;;;;30.36;nan;100877.25;5102137;28;20088;-66
2022/06/03 12:50:04;;;;;;;6.67;3.53;;;;;;;30.47;nan;100875.59;5071547;28;20002;-66
2022/06/03 12:52:30;;;;;;;4.13;3.00;;;;;;;30.56;nan;100873.53;5107108;28;20038;-68
2022/06/03 12:54:57;;;;;;;5.40;2.80;;;;;;;30.53;nan;100863.34;5098339;28;20023;-65
2022/06/03 12:57:29;;;;;;;4.10;3.00;;;;;;;30.64;nan;100869.84;5082474;28;20261;-65
2022/06/03 13:00:05;;;;;;;4.20;3.20;;;;;;;30.65;nan;100859.75;5077588;28;20070;-67
2022/06/03 13:02:35;;;;;;;4.88;2.88;;;;;;;30.59;nan;100853.78;5076450;28;20039;-67
2022/06/03 13:05:09;;;;;;;3.38;2.65;;;;;;;30.57;nan;100856.06;5100776;28;20389;-67
2022/06/03 13:07:54;;;;;;;4.57;2.72;;;;;;;30.59;nan;100850.28;5102159;28;20032;-68
2022/06/03 13:10:26;;;;;;;3.88;2.83;;;;;;;30.48;nan;100839.94;5096111;28;20032;-65
2022/06/03 13:12:53;;;;;;;4.95;2.90;;;;;;;30.66;nan;100853.97;5107987;28;20032;-66
2022/06/03 13:15:21;;;;;;;3.88;2.80;;;;;;;30.76;nan;100851.88;5088639;28;20081;-67